Venice, Florida
Current Conditions -  °F | °C
As of 9:53 PM on Tuesday 21 Oct 2014 (Local Time) from KSRQ Reporting Station
Clear Clear  
Wind Chill: 75°   Ceiling: Unl
Heat Index: 75°   Visibility: 10mi
Dew Point: 66°   Wind: 5mph
Humidity: 73%   Direction: 30°NNE
Pressure: 29.94"   Gusts: NA
Location:  27.1°N, 82.45°W
Report Text: KSRQ 220153Z AUTO 03004KT 10SM CLR 24/19 A2994 RMK AO2 SLP137 T02390189
Loading
Personal Weather Stations






























Interactive Weather Map New forecast layout! Learn more

10-Day Weather Forecast

Advertisements
Track Severe Weather on mobile